Time;durP1;ratioP1;P1;durP2;ratioP2;P2;SDS_P1;SDS_P2;PMS_P1;PMS_P2;Temp;Humidity;BMP_temperature;BMP_pressure;BME280_temperature;BME280_humidity;BME280_pressure;Samples;Min_cycle;Max_cycle;Signal;HPM_P1;HPM_P2
2022/09/07 00:00:29;;;;;;;13.07;5.55;;;;;;;;;;5069398;28;20248;-14
2022/09/07 00:02:57;;;;;;;6.07;4.70;;;;;;;;;;5073196;28;20228;-14
2022/09/07 00:05:24;;;;;;;9.95;5.38;;;;;;;;;;5071644;28;20233;-14
2022/09/07 00:07:51;;;;;;;9.43;4.40;;;;;;;;;;5073320;28;20656;-14
2022/09/07 00:10:19;;;;;;;6.60;4.43;;;;;;;;;;5070553;28;20237;-14
2022/09/07 00:12:47;;;;;;;6.60;5.07;;;;;;;;;;5072482;28;20233;-14
2022/09/07 00:15:15;;;;;;;8.73;5.03;;;;;;;;;;5071213;28;20232;-14
2022/09/07 00:17:42;;;;;;;8.60;4.78;;;;;;;;;;5068733;28;20234;-14
2022/09/07 00:20:10;;;;;;;10.48;5.10;;;;;;;;;;5067676;28;20714;-14
2022/09/07 00:22:38;;;;;;;6.88;4.88;;;;;;;;;;5072370;28;20260;-14
2022/09/07 00:25:06;;;;;;;6.50;4.75;;;;;;;;;;5070913;28;20240;-14
2022/09/07 00:27:33;;;;;;;7.88;5.03;;;;;;;;;;5071244;28;20236;-14
2022/09/07 00:30:02;;;;;;;12.30;5.53;;;;;;;;;;5070125;28;21001;-14
2022/09/07 00:32:29;;;;;;;10.45;5.40;;;;;;;;;;5072908;28;20230;-14
2022/09/07 00:34:56;;;;;;;9.68;5.43;;;;;;;;;;5070814;28;20708;-14
2022/09/07 00:37:24;;;;;;;7.15;5.38;;;;;;;;;;5069240;28;21092;-14
2022/09/07 00:39:51;;;;;;;8.70;5.32;;;;;;;;;;5070702;28;20233;-14
2022/09/07 00:42:19;;;;;;;7.35;5.90;;;;;;;;;;5073087;28;20511;-14
2022/09/07 00:44:58;;;;;;;9.10;5.65;;;;;;;;;;5068184;28;20263;-14
2022/09/07 00:47:28;;;;;;;9.50;5.80;;;;;;;;;;5071114;28;20240;-14
2022/09/07 00:49:56;;;;;;;8.27;5.53;;;;;;;;;;5071155;28;20233;-14
2022/09/07 00:52:24;;;;;;;8.68;5.55;;;;;;;;;;5073346;28;20253;-14
2022/09/07 00:54:52;;;;;;;8.32;4.80;;;;;;;;;;5070766;28;20225;-14
2022/09/07 00:57:20;;;;;;;8.43;5.40;;;;;;;;;;5068692;28;20281;-14
2022/09/07 00:59:48;;;;;;;8.18;4.90;;;;;;;;;;5072854;28;20716;-14
2022/09/07 01:02:15;;;;;;;6.05;4.55;;;;;;;;;;5071562;28;20236;-14
2022/09/07 01:04:45;;;;;;;7.32;4.63;;;;;;;;;;5072167;28;20233;-14
2022/09/07 01:07:12;;;;;;;6.15;4.43;;;;;;;;;;5069907;28;20236;-14
2022/09/07 01:09:39;;;;;;;7.18;4.50;;;;;;;;;;5069219;28;20229;-14
2022/09/07 01:12:07;;;;;;;7.35;4.63;;;;;;;;;;5070728;28;20241;-14
2022/09/07 01:14:35;;;;;;;5.93;4.10;;;;;;;;;;5072363;28;20221;-14
2022/09/07 01:17:03;;;;;;;7.45;4.45;;;;;;;;;;5070706;28;20237;-14
2022/09/07 01:19:37;;;;;;;6.10;4.40;;;;;;;;;;5069791;28;20229;-14
2022/09/07 01:22:09;;;;;;;6.00;3.80;;;;;;;;;;5069809;28;20873;-14
2022/09/07 01:24:46;;;;;;;4.55;3.60;;;;;;;;;;5069287;28;20237;-14
2022/09/07 01:27:25;;;;;;;6.53;3.90;;;;;;;;;;5067811;28;20233;-14
2022/09/07 01:29:52;;;;;;;5.45;3.92;;;;;;;;;;5068895;28;20952;-14
2022/09/07 01:32:21;;;;;;;5.18;3.50;;;;;;;;;;5067309;28;20233;-14
2022/09/07 01:34:51;;;;;;;4.97;3.50;;;;;;;;;;5070147;28;20221;-14
2022/09/07 01:37:20;;;;;;;5.10;3.70;;;;;;;;;;5070105;28;20237;-14
2022/09/07 01:39:52;;;;;;;5.28;3.28;;;;;;;;;;5071145;28;20239;-14
2022/09/07 01:42:20;;;;;;;4.82;3.50;;;;;;;;;;5070530;28;20756;-14
2022/09/07 01:44:49;;;;;;;5.45;3.50;;;;;;;;;;5069444;28;20233;-14
2022/09/07 01:47:17;;;;;;;4.97;3.28;;;;;;;;;;5071007;28;20268;-14
2022/09/07 01:49:45;;;;;;;5.05;3.40;;;;;;;;;;5069626;28;20226;-15
2022/09/07 01:52:13;;;;;;;5.60;3.83;;;;;;;;;;5068750;28;20248;-16
2022/09/07 01:54:41;;;;;;;5.47;3.58;;;;;;;;;;5069783;28;20233;-14
2022/09/07 01:57:10;;;;;;;4.97;3.65;;;;;;;;;;5071863;28;20237;-14
2022/09/07 01:59:37;;;;;;;5.00;3.63;;;;;;;;;;5069035;28;20721;-14
2022/09/07 02:02:07;;;;;;;5.93;4.20;;;;;;;;;;5069063;28;20225;-14
2022/09/07 02:04:35;;;;;;;7.07;4.28;;;;;;;;;;5069216;28;20244;-14
2022/09/07 02:07:04;;;;;;;4.35;3.65;;;;;;;;;;5069673;28;20236;-14
2022/09/07 02:09:32;;;;;;;6.57;3.95;;;;;;;;;;5066849;28;20229;-14
2022/09/07 02:12:01;;;;;;;4.88;3.90;;;;;;;;;;5068867;28;20245;-14
2022/09/07 02:14:30;;;;;;;4.60;3.55;;;;;;;;;;5065863;28;20244;-14
2022/09/07 02:16:58;;;;;;;4.75;3.78;;;;;;;;;;5069569;28;20236;-14
2022/09/07 02:19:28;;;;;;;5.35;4.10;;;;;;;;;;5068562;28;20229;-14
2022/09/07 02:21:56;;;;;;;5.07;4.05;;;;;;;;;;5057507;22;20246;-15
2022/09/07 02:24:24;;;;;;;4.38;3.63;;;;;;;;;;5029704;28;20602;-15
2022/09/07 02:26:52;;;;;;;3.90;3.50;;;;;;;;;;5030020;28;20698;-15
2022/09/07 02:29:20;;;;;;;4.15;3.72;;;;;;;;;;5026923;28;20233;-15
2022/09/07 02:31:48;;;;;;;5.60;3.95;;;;;;;;;;5021908;28;20250;-15
2022/09/07 02:34:16;;;;;;;5.15;3.90;;;;;;;;;;5029967;28;20227;-15
2022/09/07 02:36:45;;;;;;;5.70;4.32;;;;;;;;;;5029882;28;20242;-15
2022/09/07 02:39:12;;;;;;;4.28;3.70;;;;;;;;;;5030148;28;20242;-15
2022/09/07 02:41:40;;;;;;;4.70;3.70;;;;;;;;;;5030105;28;20270;-15
2022/09/07 02:44:08;;;;;;;5.60;3.88;;;;;;;;;;5027740;28;20239;-15
2022/09/07 02:46:39;;;;;;;6.38;4.03;;;;;;;;;;5028118;28;20257;-15
2022/09/07 02:49:08;;;;;;;5.03;4.03;;;;;;;;;;5028399;28;20269;-15
2022/09/07 02:51:36;;;;;;;7.20;4.15;;;;;;;;;;5026453;28;20243;-15
2022/09/07 02:54:08;;;;;;;5.13;4.15;;;;;;;;;;5028500;28;20237;-15
2022/09/07 02:56:41;;;;;;;5.82;4.03;;;;;;;;;;5029126;28;20227;-15
2022/09/07 02:59:13;;;;;;;5.43;3.72;;;;;;;;;;5027133;28;20244;-15
2022/09/07 03:01:43;;;;;;;5.40;3.95;;;;;;;;;;5027925;28;20235;-15
2022/09/07 03:04:12;;;;;;;6.55;4.22;;;;;;;;;;5029070;28;20234;-15
2022/09/07 03:06:40;;;;;;;6.32;3.80;;;;;;;;;;5028114;28;20624;-15
2022/09/07 03:09:10;;;;;;;4.22;3.72;;;;;;;;;;5027671;28;20233;-15
2022/09/07 03:11:37;;;;;;;6.60;4.30;;;;;;;;;;5031395;28;20338;-15
2022/09/07 03:14:11;;;;;;;6.00;3.95;;;;;;;;;;5032182;28;20304;-15
2022/09/07 03:16:38;;;;;;;4.25;3.75;;;;;;;;;;5030689;28;20237;-15
2022/09/07 03:19:05;;;;;;;5.63;3.88;;;;;;;;;;5029219;28;20241;-15
2022/09/07 03:21:33;;;;;;;6.30;3.92;;;;;;;;;;5031552;28;20251;-15
2022/09/07 03:24:00;;;;;;;6.22;3.67;;;;;;;;;;5029906;28;20234;-15
2022/09/07 03:26:29;;;;;;;7.38;3.80;;;;;;;;;;5031232;28;20232;-14
2022/09/07 03:28:56;;;;;;;3.72;3.42;;;;;;;;;;5031642;28;20231;-15
2022/09/07 03:31:24;;;;;;;8.35;3.70;;;;;;;;;;5030702;28;20237;-15
2022/09/07 03:33:51;;;;;;;4.93;3.83;;;;;;;;;;5031436;28;20235;-15
2022/09/07 03:36:19;;;;;;;4.90;3.97;;;;;;;;;;5029120;28;20227;-15
2022/09/07 03:38:46;;;;;;;4.40;3.55;;;;;;;;;;5029134;28;20230;-15
2022/09/07 03:41:13;;;;;;;5.55;3.45;;;;;;;;;;5028659;28;20227;-15
2022/09/07 03:43:42;;;;;;;6.10;3.65;;;;;;;;;;5029481;28;20227;-15
2022/09/07 03:46:09;;;;;;;6.18;3.95;;;;;;;;;;5027851;28;20237;-15
2022/09/07 03:48:37;;;;;;;3.75;3.30;;;;;;;;;;5031034;28;20258;-15
2022/09/07 03:51:05;;;;;;;5.45;3.47;;;;;;;;;;5031176;28;20241;-15
2022/09/07 03:53:33;;;;;;;4.38;3.08;;;;;;;;;;5029150;28;20333;-15
2022/09/07 03:56:00;;;;;;;5.55;3.28;;;;;;;;;;5026353;28;20361;-15
2022/09/07 03:58:28;;;;;;;6.93;3.95;;;;;;;;;;5028318;28;20761;-15
2022/09/07 04:00:57;;;;;;;3.72;3.13;;;;;;;;;;5030823;28;21062;-15
2022/09/07 04:03:24;;;;;;;5.60;3.30;;;;;;;;;;5030114;28;20583;-15
2022/09/07 04:05:51;;;;;;;4.93;3.17;;;;;;;;;;5031958;28;20237;-15
2022/09/07 04:08:19;;;;;;;4.32;3.10;;;;;;;;;;5029247;28;20226;-15
2022/09/07 04:10:46;;;;;;;4.65;3.10;;;;;;;;;;5030502;28;20245;-15
2022/09/07 04:13:13;;;;;;;3.65;3.00;;;;;;;;;;5028555;28;20234;-15
2022/09/07 04:15:41;;;;;;;6.68;3.40;;;;;;;;;;5025662;28;20227;-15
2022/09/07 04:18:09;;;;;;;8.82;3.70;;;;;;;;;;5030448;28;20235;-15
2022/09/07 04:20:37;;;;;;;5.78;4.15;;;;;;;;;;5030732;28;20241;-15
2022/09/07 04:23:04;;;;;;;6.22;4.25;;;;;;;;;;5028860;28;20282;-15
2022/09/07 04:25:32;;;;;;;5.45;4.82;;;;;;;;;;5031212;28;20249;-15
2022/09/07 04:27:59;;;;;;;7.63;5.13;;;;;;;;;;5027804;28;20245;-15
2022/09/07 04:30:26;;;;;;;8.02;5.20;;;;;;;;;;5029940;28;20235;-15
2022/09/07 04:32:54;;;;;;;7.38;5.43;;;;;;;;;;5029762;28;20238;-15
2022/09/07 04:35:23;;;;;;;6.80;5.55;;;;;;;;;;5031189;28;20234;-15
2022/09/07 04:37:50;;;;;;;7.03;5.93;;;;;;;;;;5027296;28;20231;-15
2022/09/07 04:40:17;;;;;;;9.85;5.75;;;;;;;;;;5030035;28;20266;-15
2022/09/07 04:42:45;;;;;;;6.35;5.20;;;;;;;;;;5029843;28;20231;-15
2022/09/07 04:45:12;;;;;;;7.90;4.82;;;;;;;;;;5028037;28;20373;-15
2022/09/07 04:47:39;;;;;;;7.38;5.97;;;;;;;;;;5026898;28;20231;-15
2022/09/07 04:50:08;;;;;;;6.53;4.93;;;;;;;;;;5029098;28;20231;-14
2022/09/07 04:52:36;;;;;;;8.05;6.05;;;;;;;;;;5027571;28;20246;-14
2022/09/07 04:55:04;;;;;;;8.30;5.32;;;;;;;;;;5028090;28;20223;-15
2022/09/07 04:57:31;;;;;;;5.22;4.72;;;;;;;;;;5029917;28;20245;-15
2022/09/07 05:00:00;;;;;;;7.72;5.50;;;;;;;;;;5024697;28;20231;-15
2022/09/07 05:02:27;;;;;;;7.28;4.32;;;;;;;;;;5026521;28;20227;-15
2022/09/07 05:04:54;;;;;;;6.50;5.20;;;;;;;;;;5030545;28;20997;-15
2022/09/07 05:07:28;;;;;;;8.50;5.35;;;;;;;;;;5030382;28;20235;-15
2022/09/07 05:09:57;;;;;;;5.35;4.80;;;;;;;;;;5029792;28;20239;-15
2022/09/07 05:12:24;;;;;;;5.93;4.93;;;;;;;;;;5029580;28;20706;-15
2022/09/07 05:14:52;;;;;;;9.70;5.35;;;;;;;;;;5028800;28;20238;-15
2022/09/07 05:17:20;;;;;;;6.13;4.63;;;;;;;;;;5029292;28;20238;-15
2022/09/07 05:19:47;;;;;;;9.18;4.80;;;;;;;;;;5028342;28;20758;-15
2022/09/07 05:22:15;;;;;;;9.15;5.22;;;;;;;;;;5027468;28;20698;-15
2022/09/07 05:24:42;;;;;;;8.82;5.22;;;;;;;;;;5028978;28;20247;-15
2022/09/07 05:27:11;;;;;;;13.05;5.10;;;;;;;;;;5029111;28;20242;-15
2022/09/07 05:29:38;;;;;;;12.77;5.88;;;;;;;;;;5029849;28;20229;-15
2022/09/07 05:32:25;;;;;;;12.35;6.70;;;;;;;;;;5026969;28;20238;-15
2022/09/07 05:34:53;;;;;;;7.07;5.18;;;;;;;;;;5028726;28;20247;-15
2022/09/07 05:37:20;;;;;;;9.02;7.22;;;;;;;;;;5029622;28;20230;-15
2022/09/07 05:39:47;;;;;;;10.77;5.72;;;;;;;;;;5028772;28;20234;-15
2022/09/07 05:42:16;;;;;;;9.68;6.53;;;;;;;;;;5028653;28;20994;-15
2022/09/07 05:44:44;;;;;;;10.05;6.50;;;;;;;;;;5029403;28;20235;-15
2022/09/07 05:47:12;;;;;;;6.88;6.13;;;;;;;;;;5028390;28;20675;-15
2022/09/07 05:49:39;;;;;;;6.20;5.60;;;;;;;;;;5029261;28;20227;-15
2022/09/07 05:52:07;;;;;;;8.18;5.70;;;;;;;;;;5028600;28;20230;-15
2022/09/07 05:54:34;;;;;;;9.65;5.07;;;;;;;;;;5029009;28;20246;-15
2022/09/07 05:57:02;;;;;;;8.10;4.80;;;;;;;;;;5017512;28;20235;-15
2022/09/07 05:59:32;;;;;;;6.78;5.05;;;;;;;;;;5028419;28;20809;-15
2022/09/07 06:02:00;;;;;;;7.13;5.63;;;;;;;;;;5024042;28;20226;-15
2022/09/07 06:04:27;;;;;;;6.93;6.00;;;;;;;;;;5022723;28;20290;-15
2022/09/07 06:06:55;;;;;;;6.28;5.35;;;;;;;;;;5023530;28;20978;-15
2022/09/07 06:09:42;;;;;;;7.13;4.72;;;;;;;;;;5021884;28;20235;-15
2022/09/07 06:12:29;;;;;;;7.57;5.70;;;;;;;;;;5026678;28;20238;-15
2022/09/07 06:15:00;;;;;;;7.03;4.55;;;;;;;;;;5026256;28;20714;-15
2022/09/07 06:17:28;;;;;;;6.68;5.13;;;;;;;;;;5028097;28;20227;-15
2022/09/07 06:19:55;;;;;;;9.55;5.10;;;;;;;;;;5029913;28;20226;-15
2022/09/07 06:22:22;;;;;;;9.82;6.22;;;;;;;;;;5023551;28;20256;-15
2022/09/07 06:24:56;;;;;;;7.00;4.97;;;;;;;;;;5020738;28;20243;-15
2022/09/07 06:27:23;;;;;;;7.97;5.70;;;;;;;;;;5025207;28;20230;-15
2022/09/07 06:29:51;;;;;;;8.20;6.80;;;;;;;;;;5019295;28;20237;-15
2022/09/07 06:32:19;;;;;;;10.70;6.53;;;;;;;;;;5023888;28;20239;-15
2022/09/07 06:35:07;;;;;;;10.20;5.45;;;;;;;;;;5022395;28;20239;-15
2022/09/07 06:37:34;;;;;;;12.30;9.02;;;;;;;;;;5024599;28;20987;-15
2022/09/07 06:40:02;;;;;;;8.88;7.97;;;;;;;;;;5024687;28;20629;-14
2022/09/07 06:42:30;;;;;;;10.43;8.23;;;;;;;;;;5023464;28;20281;-15
2022/09/07 06:44:57;;;;;;;8.45;5.25;;;;;;;;;;5027128;28;20238;-15
2022/09/07 06:47:26;;;;;;;10.27;4.28;;;;;;;;;;5027725;28;20289;-15
2022/09/07 06:49:53;;;;;;;8.15;4.97;;;;;;;;;;5022595;28;20235;-15
2022/09/07 06:52:20;;;;;;;6.30;5.45;;;;;;;;;;5026832;28;20282;-15
2022/09/07 06:54:48;;;;;;;10.02;8.75;;;;;;;;;;5028881;28;20249;-15
2022/09/07 06:57:23;;;;;;;12.32;8.00;;;;;;;;;;5022542;28;20227;-15
2022/09/07 06:59:50;;;;;;;10.68;6.88;;;;;;;;;;5028285;28;20241;-15
2022/09/07 07:02:18;;;;;;;11.75;9.35;;;;;;;;;;5028903;28;20227;-15
2022/09/07 07:04:47;;;;;;;9.13;8.23;;;;;;;;;;5022587;28;20236;-14
2022/09/07 07:07:14;;;;;;;14.20;11.60;;;;;;;;;;5026033;28;20708;-15
2022/09/07 07:09:41;;;;;;;15.63;12.10;;;;;;;;;;5024431;28;20230;-15
2022/09/07 07:12:09;;;;;;;13.85;12.25;;;;;;;;;;5031436;28;20313;-14
2022/09/07 07:14:36;;;;;;;14.02;12.20;;;;;;;;;;5027385;28;20246;-15
2022/09/07 07:17:08;;;;;;;12.25;11.05;;;;;;;;;;5028988;28;20321;-15
2022/09/07 07:19:36;;;;;;;16.48;12.63;;;;;;;;;;5025320;28;20325;-15
2022/09/07 07:22:04;;;;;;;13.63;11.57;;;;;;;;;;5024738;28;20249;-14
2022/09/07 07:24:52;;;;;;;15.65;13.85;;;;;;;;;;5023469;28;20246;-15
2022/09/07 07:27:20;;;;;;;16.17;14.20;;;;;;;;;;5021880;28;20223;-15
2022/09/07 07:29:47;;;;;;;15.07;13.52;;;;;;;;;;5026747;28;20602;-15
2022/09/07 07:32:15;;;;;;;15.57;13.98;;;;;;;;;;5024455;28;20636;-15
2022/09/07 07:35:01;;;;;;;18.05;14.35;;;;;;;;;;5024421;28;20234;-15
2022/09/07 07:37:31;;;;;;;11.05;8.13;;;;;;;;;;5024003;28;20321;-15
2022/09/07 07:39:59;;;;;;;11.45;10.10;;;;;;;;;;5024676;28;20238;-15
2022/09/07 07:42:46;;;;;;;14.18;12.77;;;;;;;;;;5025334;28;20241;-15
2022/09/07 07:45:13;;;;;;;12.50;9.93;;;;;;;;;;5027890;28;20254;-14
2022/09/07 07:48:00;;;;;;;15.52;11.95;;;;;;;;;;5028727;28;20238;-15
2022/09/07 07:50:28;;;;;;;16.90;13.00;;;;;;;;;;5031573;28;21031;-14
2022/09/07 07:52:59;;;;;;;16.27;14.15;;;;;;;;;;5029551;28;20289;-15
2022/09/07 07:55:47;;;;;;;14.68;11.90;;;;;;;;;;5028486;28;20477;-15
2022/09/07 07:58:14;;;;;;;12.90;10.68;;;;;;;;;;5027850;28;20228;-15
2022/09/07 08:00:41;;;;;;;12.48;9.77;;;;;;;;;;5023269;28;20892;-15
2022/09/07 08:03:25;;;;;;;14.18;11.55;;;;;;;;;;5025461;28;20235;-15
2022/09/07 08:05:52;;;;;;;18.35;13.15;;;;;;;;;;5026108;28;20966;-15
2022/09/07 08:08:21;;;;;;;15.48;13.20;;;;;;;;;;5023818;28;20239;-15
2022/09/07 08:10:49;;;;;;;16.52;14.70;;;;;;;;;;5023034;28;20706;-15
2022/09/07 08:13:16;;;;;;;16.15;14.50;;;;;;;;;;5023900;28;20240;-15
2022/09/07 08:15:45;;;;;;;15.07;13.50;;;;;;;;;;5025197;28;20239;-15
2022/09/07 08:18:12;;;;;;;16.73;14.95;;;;;;;;;;5025669;28;20231;-15
2022/09/07 08:20:40;;;;;;;19.30;14.93;;;;;;;;;;5022401;28;20584;-14
2022/09/07 08:23:07;;;;;;;12.68;11.30;;;;;;;;;;5023746;28;20713;-14
2022/09/07 08:25:36;;;;;;;17.42;13.93;;;;;;;;;;5023434;28;20231;-14
2022/09/07 08:28:03;;;;;;;15.20;12.30;;;;;;;;;;5028307;28;20293;-15
2022/09/07 08:30:30;;;;;;;12.57;11.27;;;;;;;;;;5023569;28;20235;-15
2022/09/07 08:32:58;;;;;;;16.75;14.80;;;;;;;;;;5026112;28;20235;-14
2022/09/07 08:35:25;;;;;;;14.85;13.35;;;;;;;;;;5024905;28;20235;-15
2022/09/07 08:37:52;;;;;;;14.02;12.52;;;;;;;;;;5027300;28;20226;-15
2022/09/07 08:40:20;;;;;;;18.23;13.70;;;;;;;;;;5026480;28;20239;-15
2022/09/07 08:42:52;;;;;;;18.13;14.98;;;;;;;;;;5024676;28;20636;-14
2022/09/07 08:45:21;;;;;;;19.30;16.42;;;;;;;;;;5022488;28;20228;-15
2022/09/07 08:47:49;;;;;;;19.65;16.73;;;;;;;;;;5022724;28;21094;-15
2022/09/07 08:50:18;;;;;;;20.95;16.23;;;;;;;;;;5022870;28;21016;-14
2022/09/07 08:52:47;;;;;;;18.10;16.20;;;;;;;;;;5024742;28;20305;-14
2022/09/07 08:55:15;;;;;;;20.48;14.90;;;;;;;;;;5029009;28;20243;-14
2022/09/07 08:57:43;;;;;;;23.98;17.35;;;;;;;;;;5027685;28;20694;-14
2022/09/07 09:00:13;;;;;;;18.08;14.48;;;;;;;;;;5024373;28;20289;-14
2022/09/07 09:02:40;;;;;;;16.90;13.98;;;;;;;;;;5024351;28;20288;-14
2022/09/07 09:05:21;;;;;;;18.00;12.77;;;;;;;;;;5028556;28;20235;-14
2022/09/07 09:07:50;;;;;;;15.55;12.05;;;;;;;;;;5026832;28;20285;-15
2022/09/07 09:10:20;;;;;;;13.68;11.05;;;;;;;;;;5026445;28;20748;-14
2022/09/07 09:12:56;;;;;;;12.45;11.15;;;;;;;;;;5028282;28;20946;-14
2022/09/07 09:15:29;;;;;;;15.63;10.73;;;;;;;;;;5024376;28;20250;-15
2022/09/07 09:17:58;;;;;;;13.73;10.63;;;;;;;;;;5024293;28;20275;-15
2022/09/07 09:20:26;;;;;;;13.02;10.52;;;;;;;;;;5026307;28;20231;-14
2022/09/07 09:22:54;;;;;;;15.32;10.45;;;;;;;;;;5026846;28;20645;-15
2022/09/07 09:25:21;;;;;;;12.68;10.25;;;;;;;;;;5028702;28;20285;-14
2022/09/07 09:27:49;;;;;;;11.43;10.30;;;;;;;;;;5035165;28;20290;-14
2022/09/07 09:30:17;;;;;;;12.18;10.65;;;;;;;;;;5047848;28;20818;-14
2022/09/07 09:32:46;;;;;;;11.38;9.52;;;;;;;;;;5055123;28;20293;-14
2022/09/07 09:35:14;;;;;;;12.48;8.98;;;;;;;;;;5046803;28;20276;-14
2022/09/07 09:37:42;;;;;;;11.55;9.63;;;;;;;;;;5030981;28;20239;-14
2022/09/07 09:40:22;;;;;;;11.55;9.50;;;;;;;;;;5043094;28;20230;-15
2022/09/07 09:42:58;;;;;;;12.52;9.82;;;;;;;;;;5044063;28;20324;-14
2022/09/07 09:45:25;;;;;;;12.48;8.88;;;;;;;;;;5040402;28;20286;-17
2022/09/07 09:47:54;;;;;;;11.27;9.20;;;;;;;;;;5040990;28;20385;-17
2022/09/07 09:50:23;;;;;;;13.07;9.52;;;;;;;;;;5041317;28;20265;-17
2022/09/07 09:53:16;;;;;;;11.45;8.60;;;;;;;;;;5044701;28;20288;-16
2022/09/07 09:55:43;;;;;;;11.40;9.38;;;;;;;;;;5041983;28;21451;-15
2022/09/07 09:58:26;;;;;;;12.63;8.93;;;;;;;;;;5045569;28;20238;-17
2022/09/07 10:01:20;;;;;;;10.00;8.40;;;;;;;;;;5035965;28;21300;-15
2022/09/07 10:03:51;;;;;;;13.23;9.73;;;;;;;;;;5041882;28;20264;-17
2022/09/07 10:06:23;;;;;;;10.45;8.20;;;;;;;;;;5042535;28;20242;-15
2022/09/07 10:08:53;;;;;;;9.68;8.68;;;;;;;;;;5045156;28;20245;-15
2022/09/07 10:11:20;;;;;;;10.25;8.50;;;;;;;;;;5043831;28;20234;-17
2022/09/07 10:13:53;;;;;;;11.48;9.13;;;;;;;;;;5041534;28;20328;-15
2022/09/07 10:16:21;;;;;;;13.27;8.75;;;;;;;;;;5041089;28;20244;-16
2022/09/07 10:18:55;;;;;;;10.68;7.93;;;;;;;;;;5044267;28;20292;-16
2022/09/07 10:21:23;;;;;;;10.13;8.57;;;;;;;;;;5045071;28;20296;-14
2022/09/07 10:23:53;;;;;;;11.77;8.20;;;;;;;;;;5041412;28;20230;-16
2022/09/07 10:26:21;;;;;;;17.75;8.23;;;;;;;;;;5043037;28;20340;-14
2022/09/07 10:28:48;;;;;;;14.13;7.65;;;;;;;;;;5041648;28;20241;-14
2022/09/07 10:31:36;;;;;;;20.15;9.02;;;;;;;;;;5040735;28;20258;-14
2022/09/07 10:34:05;;;;;;;17.25;8.50;;;;;;;;;;5044154;28;20237;-15
2022/09/07 10:36:55;;;;;;;11.55;8.05;;;;;;;;;;5040079;28;20341;-14
2022/09/07 10:39:24;;;;;;;9.48;8.43;;;;;;;;;;5039859;28;20241;-16
2022/09/07 10:42:04;;;;;;;11.32;7.75;;;;;;;;;;5042200;28;20234;-16
2022/09/07 10:44:38;;;;;;;9.07;7.70;;;;;;;;;;5046594;28;20241;-16
2022/09/07 10:47:06;;;;;;;10.32;8.27;;;;;;;;;;5046712;28;20686;-15
2022/09/07 10:49:36;;;;;;;9.60;7.95;;;;;;;;;;5040607;28;20602;-14
2022/09/07 10:52:06;;;;;;;9.15;6.63;;;;;;;;;;5043097;28;20265;-14
2022/09/07 10:54:35;;;;;;;11.10;6.97;;;;;;;;;;5040753;28;20234;-14
2022/09/07 10:57:05;;;;;;;6.85;5.93;;;;;;;;;;5040038;28;20276;-14
2022/09/07 10:59:35;;;;;;;6.88;6.13;;;;;;;;;;5037779;28;20666;-17
2022/09/07 11:02:24;;;;;;;9.38;6.82;;;;;;;;;;5041937;28;20265;-16
2022/09/07 11:04:57;;;;;;;10.15;6.95;;;;;;;;;;5041770;28;20238;-15
2022/09/07 11:07:28;;;;;;;9.05;6.32;;;;;;;;;;5039652;28;20301;-15
2022/09/07 11:09:57;;;;;;;7.00;6.18;;;;;;;;;;5044097;28;20306;-16
2022/09/07 11:12:25;;;;;;;9.05;6.40;;;;;;;;;;5037214;28;20284;-15
2022/09/07 11:14:56;;;;;;;7.35;5.63;;;;;;;;;;5045118;28;20238;-16
2022/09/07 11:17:23;;;;;;;10.07;5.80;;;;;;;;;;5044291;28;20297;-15
2022/09/07 11:19:52;;;;;;;7.80;5.57;;;;;;;;;;5038723;28;20803;-16
2022/09/07 11:22:25;;;;;;;10.02;4.72;;;;;;;;;;5042690;28;21075;-16
2022/09/07 11:24:53;;;;;;;8.90;4.18;;;;;;;;;;5039157;28;20264;-13
2022/09/07 11:27:42;;;;;;;7.32;3.78;;;;;;;;;;5033069;28;20709;-14
2022/09/07 11:30:15;;;;;;;7.25;4.28;;;;;;;;;;5042788;28;20237;-14
2022/09/07 11:32:44;;;;;;;8.02;5.40;;;;;;;;;;5050387;28;20234;-13
2022/09/07 11:35:15;;;;;;;8.40;5.22;;;;;;;;;;5056541;28;21625;-13
2022/09/07 11:37:45;;;;;;;11.68;6.20;;;;;;;;;;5051545;28;20245;-14
2022/09/07 11:40:13;;;;;;;8.80;5.13;;;;;;;;;;5040509;28;20226;-14
2022/09/07 11:42:42;;;;;;;9.50;5.50;;;;;;;;;;5043660;28;20334;-14
2022/09/07 11:45:12;;;;;;;10.65;6.97;;;;;;;;;;5051962;28;20269;-13
2022/09/07 11:47:41;;;;;;;7.90;4.90;;;;;;;;;;5048666;28;20241;-14
2022/09/07 11:50:13;;;;;;;6.50;5.22;;;;;;;;;;5040457;28;20238;-14
2022/09/07 11:52:41;;;;;;;6.85;5.80;;;;;;;;;;5045762;28;20309;-14
2022/09/07 11:55:11;;;;;;;8.13;5.35;;;;;;;;;;5046022;28;20226;-14
2022/09/07 11:57:47;;;;;;;6.07;5.40;;;;;;;;;;5049308;28;20254;-14
2022/09/07 12:00:21;;;;;;;7.93;5.55;;;;;;;;;;5049516;28;20284;-14
2022/09/07 12:02:52;;;;;;;8.52;5.13;;;;;;;;;;5048604;28;20238;-13
2022/09/07 12:05:30;;;;;;;6.95;5.18;;;;;;;;;;5048076;28;20261;-14
2022/09/07 12:08:04;;;;;;;6.55;4.90;;;;;;;;;;5053433;28;20226;-14
2022/09/07 12:10:45;;;;;;;7.80;5.10;;;;;;;;;;5046036;28;20929;-16
2022/09/07 12:13:22;;;;;;;7.40;4.82;;;;;;;;;;5046418;28;20238;-16
2022/09/07 12:15:50;;;;;;;9.73;4.03;;;;;;;;;;5047728;28;20771;-15
2022/09/07 12:18:23;;;;;;;8.45;4.45;;;;;;;;;;5044901;28;20689;-15
2022/09/07 12:20:50;;;;;;;10.50;5.25;;;;;;;;;;5039373;28;21082;-16
2022/09/07 12:23:19;;;;;;;9.95;5.25;;;;;;;;;;5045855;28;20230;-17
2022/09/07 12:25:48;;;;;;;8.13;4.55;;;;;;;;;;5045787;28;20296;-15
2022/09/07 12:28:16;;;;;;;8.02;4.07;;;;;;;;;;5046505;28;20230;-15
2022/09/07 12:30:52;;;;;;;8.57;4.22;;;;;;;;;;5042177;28;20234;-15
2022/09/07 12:33:21;;;;;;;7.90;4.10;;;;;;;;;;5041996;28;21068;-15
2022/09/07 12:35:48;;;;;;;7.15;3.90;;;;;;;;;;5050223;28;20243;-16
2022/09/07 12:38:34;;;;;;;6.93;3.58;;;;;;;;;;5044587;28;20375;-14
2022/09/07 12:41:03;;;;;;;7.60;3.53;;;;;;;;;;5043563;28;20238;-16
2022/09/07 12:43:51;;;;;;;7.47;4.20;;;;;;;;;;5038966;28;20284;-16
2022/09/07 12:46:19;;;;;;;5.82;3.60;;;;;;;;;;5048073;28;20226;-16
2022/09/07 12:48:50;;;;;;;4.47;4.00;;;;;;;;;;5046186;28;20241;-16
2022/09/07 12:51:24;;;;;;;4.72;4.10;;;;;;;;;;5043117;28;20756;-16
2022/09/07 12:54:13;;;;;;;6.15;3.90;;;;;;;;;;5037718;28;20246;-17
2022/09/07 12:56:43;;;;;;;6.32;3.92;;;;;;;;;;5046889;28;20272;-15
2022/09/07 12:59:26;;;;;;;6.28;4.07;;;;;;;;;;5045800;28;20697;-15
2022/09/07 13:01:55;;;;;;;6.78;4.13;;;;;;;;;;5042204;28;20701;-16
2022/09/07 13:04:28;;;;;;;6.15;3.00;;;;;;;;;;5043023;28;20746;-15
2022/09/07 13:06:59;;;;;;;4.60;3.33;;;;;;;;;;5042308;28;20241;-16
2022/09/07 13:09:32;;;;;;;3.80;2.83;;;;;;;;;;5042834;28;20718;-16
2022/09/07 13:12:03;;;;;;;5.50;3.50;;;;;;;;;;5046492;28;20289;-16
2022/09/07 13:14:37;;;;;;;3.88;3.42;;;;;;;;;;5043614;28;20285;-16
2022/09/07 13:17:23;;;;;;;6.05;3.13;;;;;;;;;;5045053;28;20233;-15
2022/09/07 13:20:20;;;;;;;4.35;2.83;;;;;;;;;;5043922;28;20438;-16
2022/09/07 13:22:53;;;;;;;4.88;2.88;;;;;;;;;;4987134;28;20261;-15
2022/09/07 13:25:40;;;;;;;5.07;2.63;;;;;;;;;;5044351;28;20226;-16
2022/09/07 13:28:13;;;;;;;8.40;2.92;;;;;;;;;;5035039;28;20970;-16
2022/09/07 13:30:45;;;;;;;6.90;2.83;;;;;;;;;;5047876;28;20233;-16
2022/09/07 13:33:46;;;;;;;8.30;2.67;;;;;;;;;;5040803;28;20230;-14
2022/09/07 13:36:23;;;;;;;5.07;2.88;;;;;;;;;;4981703;28;20250;-15
2022/09/07 13:38:50;;;;;;;2.60;2.17;;;;;;;;;;4981753;28;21025;-13
2022/09/07 13:41:18;;;;;;;3.83;2.20;;;;;;;;;;5015140;28;20238;-15
2022/09/07 13:43:47;;;;;;;3.22;2.40;;;;;;;;;;5050257;28;20238;-14
2022/09/07 13:46:16;;;;;;;4.28;2.70;;;;;;;;;;5043767;28;20238;-15
2022/09/07 13:48:45;;;;;;;4.03;1.90;;;;;;;;;;5049094;28;20268;-14
2022/09/07 13:51:14;;;;;;;6.57;2.38;;;;;;;;;;5049215;28;20284;-14
2022/09/07 13:53:56;;;;;;;2.97;2.35;;;;;;;;;;5044746;28;20249;-14
2022/09/07 13:56:27;;;;;;;4.22;2.47;;;;;;;;;;5046221;28;21077;-14
2022/09/07 13:58:56;;;;;;;4.00;2.00;;;;;;;;;;5041855;28;20238;-14
2022/09/07 14:01:24;;;;;;;4.55;2.20;;;;;;;;;;5046284;28;20268;-14
2022/09/07 14:03:52;;;;;;;2.60;1.90;;;;;;;;;;5043704;28;20870;-14
2022/09/07 14:06:30;;;;;;;3.00;2.20;;;;;;;;;;5044071;28;21085;-14
2022/09/07 14:08:57;;;;;;;3.05;2.45;;;;;;;;;;5042276;28;20736;-16
2022/09/07 14:11:25;;;;;;;2.00;1.77;;;;;;;;;;5045690;28;20284;-14
2022/09/07 14:14:11;;;;;;;2.88;2.17;;;;;;;;;;5044901;28;20230;-15
2022/09/07 14:16:40;;;;;;;4.70;2.38;;;;;;;;;;5046485;28;20299;-14
2022/09/07 14:19:16;;;;;;;2.45;1.80;;;;;;;;;;5044206;28;20790;-16
2022/09/07 14:21:43;;;;;;;4.03;1.90;;;;;;;;;;5044322;28;20253;-14
2022/09/07 14:24:18;;;;;;;2.47;2.05;;;;;;;;;;5045603;28;20234;-14
2022/09/07 14:26:45;;;;;;;5.07;2.30;;;;;;;;;;5045207;28;20229;-14
2022/09/07 14:29:20;;;;;;;4.07;2.40;;;;;;;;;;5045522;28;21070;-14
2022/09/07 14:31:49;;;;;;;2.15;1.73;;;;;;;;;;5051717;28;21078;-15
2022/09/07 14:34:16;;;;;;;3.60;1.70;;;;;;;;;;5047617;28;20265;-15
2022/09/07 14:36:45;;;;;;;3.50;1.70;;;;;;;;;;5046358;28;20282;-14
2022/09/07 14:39:13;;;;;;;2.10;1.60;;;;;;;;;;5046260;28;20757;-14
2022/09/07 14:41:40;;;;;;;3.22;1.75;;;;;;;;;;5045857;28;20236;-15
2022/09/07 14:44:09;;;;;;;5.55;1.98;;;;;;;;;;5050725;28;21100;-14
2022/09/07 14:46:36;;;;;;;3.63;1.80;;;;;;;;;;5043793;28;21021;-14
2022/09/07 14:49:05;;;;;;;2.10;1.75;;;;;;;;;;5042925;28;20288;-14
2022/09/07 14:51:34;;;;;;;1.83;1.70;;;;;;;;;;5044135;28;21071;-15
2022/09/07 14:54:04;;;;;;;3.35;1.80;;;;;;;;;;5041090;28;20242;-15